Timeline UpdatesTrip UpdatesNews PostsPvt PostsTravel TipsAdmin PostsConv PostsFollowed PostsChat RequestsBlog PostsPNR Posts

Disclaimer
Search
 
 
Thu Aug 21, 2014 15:39:03 ISTHomeTrainsΣChainsAtlasPNRForumGalleryNewsFAQTripsMembersLoginFeedback
No Recent News for this Train
Other Trains in the News **new
Latest...
Cancelled from 23/5/14-25/5/14 #1106177
Thu May 22, 2014 (12:18AM)
⇐ Return Journey: Train# 75720

75401⇒75719/MaldaTown-Dinhata DMU

Dec 13 2013 (11:46PM)
Change Departure Station:
Change Arrival Station:
Post a Train Travel TipPost a Train Travel Tip **new
Post a Comment/Question/Picture/VideoPost a Comment/Question/Picture/Video
Inaugural Run
Fri Aug 02, 2013
Pantry/Catering
✕ NO Pantry Car
✕ NO Catering
RSA - Rake Sharing
Rake/Coach Composition
Loco
News    PNR    Forum    Time-Table    Availability    Fare Chart    Map    Arr/Dep History    Trips    Gallery    ΣChains    X/O    Timeline    
Travel Time: 8h 51m    44 halts    Distance: 300 km    Avg Speed: 33 km/hr
Type: DEMU
Zone: NFR/Northeast Frontier
Departs @ 09:54
Platform# ???
SMTWTFS
Babhabgaon Halt/BAHN 
Arrives @ 18:45
Platform# 1
SMTWTFS
Cooch Behar/COB 

44 halts. 46 intermediate Stations between Babhabgaon Halt and Cooch Behar

Show ALL intermediate Stations  Show Old Time-Table

#CodeStation NameX/OArrivesAvgDepartsAvgHaltPFDay#KmSpeedElevZoneAddress
1MLDTMalda Town (5)  -08:10+6--1-64.74330mERDist - Malda, West Bengal
2OMLFOld Malda Junction (3)X  08:18+908:19+161m--1-59.06131mNFRDist - Malda, West Bengal
3ADFAdina (2)X  08:26+2108:27+231m--1-51.95633mNFRNational Highway 34, West Bengal
4EKIEklakhi Junction (4)  08:34+2508:35+271m--1-45.44133mNFRDistt. - Malda, West Bengal
5MBCMahananda Bridge (2)  08:39-08:40-1m--1-42.65728mNFRMahananda, West Bengal
6KMRJKumarganj (2)  08:44+3108:45+361m--1-38.87228mNFRNational Highway 34, West Bengal
7SRPUSripur Halt (2)  08:49-08:50-1m--1-34.04927mNFRSripur, West Bengal
8SMSamsi (2)  08:55+3808:56+461m--1-30.06032mNFRdist - Malda, West Bengal
9MFZMalahar  09:02-09:03-1m--1-23.97531mNFRNational Highway 81, West Bengal
10BKRDBhaluka Road FO  09:08+5409:29+3821m--1-17.7-30mNFRBhaluka, West Bengal
11MQGMilangarh  09:30-09:31-1m--1-14.24129mNFRMilangarh, West Bengal
12HCRHarischandrapurX  09:38+4409:39+501m--1-9.55731mNFRHarischandrapur, West Bengal
13KDPRKumedpur Junction (5)  09:47+5409:48+581m--1-1.92332mNFRDist. - Malda, West Bengal
14BAHN»Babhabgaon Halt (2)»  09:53-09:54-1m--10.07231mNFRBabhabgaon, West Bengal
15KWEKhurial (2)  09:58+1:0309:59+1:041m--14.85733mNFRKhurial, Bihar
16KMPHKamalpur Halt (2)  10:02-10:03-1m--17.79632mNFRKamalpur, Bihar
17AZRAzamnagar Road (3)X  10:06+1:1010:07+1:131m--112.55234mNFRAzamnagar, Bihar
18BWPBBhawanipur Bihar (2)  10:12-10:13-1m1116.84836mNFRBhawanipur, Bihar
19MFAMukuria Junction (2)  10:18+1:2110:19+1:241m--120.94332mNFRMukuria, Bihar
20BOEBarsoi Junction (3)X  10:25+1:0910:27+1:102m--125.17337mNFRdist- katihar, Bihar
21SJGMSanjay GramX  10:34-10:35-1m--133.61934mNFRSanjay Gram, West Bengal
22SUDSudhani (2)  10:46+1:3010:47+1:311m--137.07538mNFRState Highway 65, Bihar
23AHLAjharail  10:52-10:53-1m--143.23437mNFRNational Highway 34, West Bengal
24TETATelta (2)  10:58+1:3510:59+1:351m--146.06140mNFRRupauli, Bihar
25DLKDalkhola (3)X  11:07+1:3411:09+1:352m--154.26144mNFRDalkola, West Bengal
26SJKLSurja Kamal (2)  11:16+1:4111:17+1:441m--161.24244mNFRNational Highway 31, West Bengal
27KKAKanki (3)XO  11:28+1:4511:29+1:451m--168.91647mNFRKanki, West Bengal
28HWRHatwar (2)O  11:49+1:3411:50+1:371m--174.31546mNFRNational Highway 31, West Bengal
29KNEKishanGanj (3)X  12:23+1:0412:25+1:042m--182.76152mNFRKishanganj, Bihar
30PJPPanjipara (3)X  12:33+1:2112:34+1:231m--190.96655mNFRNational Highway 31, West Bengal
31GILGaisal (3)  12:42+1:2512:43+1:261m--199.65762mNFRNational Highway 31, West Bengal
32GEORGunjaria  12:49+1:2612:50+1:261m--1105.36864mNFRNational Highway 31, West Bengal
33AUBAluabari Road (2)X  12:57+1:2612:59+1:272m--1113.3580mNFRDist - uttar Dinajpur, West Bengal
34DBQDhulabari  13:04-13:05-1m--1118.16468mNFRKishanganj, Bihar
35MXJMangurjan  13:11+1:2813:12+1:301m--1124.56169mNFRMangurjan, West Bengal
36TMHTin Mile Hat  13:18+1:3313:19+1:371m--1130.76774mNFRTin Mile, West Bengal
37DMZDumdangiX  13:27+1:3913:28+1:411m--1139.56886mNFRHaftia Rd, West Bengal
38CATChattar Hat (2)  13:36+1:4413:37+1:501m--1148.66191mNFRChattar, West Bengal
39NJBNijbariX  13:44+1:5413:45+1:541m--1155.837104mNFRFulbari Ghoshpukur Bypass, West Bengal
40RNIRangapani (2)  13:56+1:5413:57+2:051m--1162.616114mNFRSILIGURI Dist - Darjeeling, West Bengal
41NJPNew Jalpaiguri Junction (8)X  14:25+1:2314:35+1:2510m--1170.052114mNFRCity-Siliguri . Dist-Jalpaiguri, West Bengal
42ABFCAmbari Falakata (2)X  14:45+2:0414:46+2:061m--1178.763105mNFRdist - jalpaiguri 735201, West Bengal
43BLKBelakoba (2)X  14:55+2:0014:56+1:451m11188.11499mNFRDist - jalpaiguri, West Bengal
44RQJRaninagar Jalpaiguri Junction (3)X  15:30+1:4915:31+1:561m--1195.87291mNFRDIST - Jalpaiguri, West Bengal
45JPEJalpaiguri Road (2)  15:37+1:5115:38+1:541m11203.06689mNFRdist - Jalpaiguri 735102, West Bengal
46NQHNew Domohani (2)X  15:45+2:0615:46+2:091m11210.71984mNFRDist - Jalpaiguri, West Bengal
47NMXNew Maynaguri (2)  15:58+2:0315:59+2:061m--1214.55886mNFRDist - Jalpaiguri, West Bengal
48BYXABetgara (2)  16:04+2:0916:05+2:111m11219.36589mNFRDIST - Jalpaiguri, West Bengal
49ATMAltagram (2)X  16:13+2:1416:14+2:181m--1228.02785mNFRDist - Jalpaiguri, West Bengal
50DQGDhupguri (2)  16:29+2:0416:30+2:051m--1234.86875mNFRDist - Jalpaiguri, West Bengal
51KLGRKolai Gram (2)X  16:36+2:1216:37+2:141m--1241.53675mNFRDist : Jalpaiguri, West Bengal
52SXXSalbari (2)  16:48+2:1216:49+2:141m--1248.26769mNFRDist - jalpaiguri, West Bengal
53FLKFalakata (3)  16:57+2:1716:58+2:201m--1257.27867mNFRDist - Alipurduar, West Bengal
54GUZGumanihat (2)XO  17:06+2:2317:07+2:251m11267.61160mNFRDist : Cooch Behar, West Bengal
55GDXGhoksadanga (2)X  17:35+2:0617:36+2:091m--1272.84158mNFRDist : Cooch Behar, West Bengal
56SJRRSajherpar (2)  17:47+2:0817:48+2:091m--1280.32254mNFRDist : Cooch Behar, West Bengal
57PQZPundibari (1)  18:00+2:0518:01+2:061m11284.82553mNFRDist - Coochbehar, West Bengal
58NCBNew Cooch Behar Junction (5)  18:25+1:4618:30+1:435m--1295.01847mNFRDist : Cooch Behar-736101, West Bengal
59COB•Cooch Behar (1)•  18:45-18:50-5m11299.55146mNFRDist : Cooch Behar, West Bengal
60DWTDewan Hat (1)  19:02-19:03-1m11309.74441mNFRdist - Coachbehar, West Bengal
61VTGBhetaguri (1)  19:08-19:09-1m11313.43643mNFRDist : Cooch Behar, West Bengal
62DCHDinhatta College Halt (1)  19:20-19:21-1m11320.01638mNFRDinhata, West Bengal
63DHHDinhata (2)  19:30+2:29---1322.4-39mNFRDist - Coochbehar, West Bengal
Scroll to Top
Scroll to Bottom